Time;durP1;ratioP1;P1;durP2;ratioP2;P2;SDS_P1;SDS_P2;PMS_P1;PMS_P2;Temp;Humidity;BMP_temperature;BMP_pressure;BME280_temperature;BME280_humidity;BME280_pressure;Samples;Min_cycle;Max_cycle;Signal;HPM_P1;HPM_P2
2023/12/27 00:02:11;;;;;;;12.17;1.50;;;4.30;99.90;;;;;;5075703;28;20217;-50
2023/12/27 00:04:39;;;;;;;7.87;1.43;;;4.30;99.90;;;;;;5051794;28;20191;-45
2023/12/27 00:07:06;;;;;;;11.33;1.43;;;4.30;99.90;;;;;;5080944;28;20652;-45
2023/12/27 00:09:32;;;;;;;5.23;1.17;;;4.30;99.90;;;;;;5067977;28;20205;-46
2023/12/27 00:12:01;;;;;;;9.33;1.63;;;4.30;99.90;;;;;;5070117;28;20275;-46
2023/12/27 00:14:28;;;;;;;9.83;1.70;;;4.30;99.90;;;;;;5053932;28;20288;-46
2023/12/27 00:16:55;;;;;;;6.70;1.50;;;4.20;99.90;;;;;;5073476;28;20576;-47
2023/12/27 00:19:22;;;;;;;8.70;1.80;;;4.20;99.90;;;;;;5052948;28;20212;-44
2023/12/27 00:21:48;;;;;;;4.87;1.23;;;4.20;99.90;;;;;;5077584;28;20213;-43
2023/12/27 00:24:15;;;;;;;6.60;1.30;;;4.20;99.90;;;;;;5078430;28;20190;-49
2023/12/27 00:26:43;;;;;;;8.13;1.23;;;4.20;99.90;;;;;;5065883;28;20325;-47
2023/12/27 00:29:11;;;;;;;6.93;1.50;;;4.20;99.90;;;;;;5057336;28;20220;-48
2023/12/27 00:31:38;;;;;;;7.13;1.87;;;4.20;99.90;;;;;;5069842;28;20213;-48
2023/12/27 00:34:05;;;;;;;3.10;1.17;;;4.20;99.90;;;;;;5045515;28;20222;-45
2023/12/27 00:36:32;;;;;;;8.03;1.90;;;4.20;99.90;;;;;;5077471;28;20236;-48
2023/12/27 00:39:01;;;;;;;9.97;2.23;;;4.20;99.90;;;;;;5077004;28;20204;-48
2023/12/27 00:41:28;;;;;;;13.47;1.80;;;4.20;99.90;;;;;;5045534;28;20218;-46
2023/12/27 00:43:55;;;;;;;5.57;1.40;;;4.20;99.90;;;;;;5058280;28;20286;-44
2023/12/27 00:46:23;;;;;;;9.10;1.70;;;4.20;99.90;;;;;;5076570;28;20243;-46
2023/12/27 00:48:51;;;;;;;8.47;1.40;;;4.20;99.90;;;;;;5053789;28;20214;-46
2023/12/27 00:51:19;;;;;;;11.83;1.57;;;4.20;99.90;;;;;;5072579;28;20221;-49
2023/12/27 00:53:46;;;;;;;6.47;1.60;;;4.20;99.90;;;;;;5074716;28;20224;-44
2023/12/27 00:56:13;;;;;;;6.83;1.30;;;4.30;99.90;;;;;;5066755;28;20206;-48
2023/12/27 00:58:40;;;;;;;8.23;1.40;;;4.20;99.90;;;;;;5065569;28;20197;-43
2023/12/27 01:01:07;;;;;;;8.80;1.50;;;4.20;99.90;;;;;;5062718;28;20229;-45
2023/12/27 01:03:35;;;;;;;13.40;1.93;;;4.20;99.90;;;;;;5047416;28;20213;-46
2023/12/27 01:06:03;;;;;;;5.60;1.97;;;4.10;99.90;;;;;;5081678;28;20198;-46
2023/12/27 01:08:30;;;;;;;7.97;1.20;;;4.00;99.90;;;;;;5075825;28;20219;-44
2023/12/27 01:10:57;;;;;;;7.70;2.03;;;3.90;99.90;;;;;;5082030;28;20263;-44
2023/12/27 01:13:25;;;;;;;6.27;1.13;;;3.90;99.90;;;;;;5055948;28;20206;-49
2023/12/27 01:15:53;;;;;;;8.00;1.50;;;3.90;99.90;;;;;;5041061;28;20301;-46
2023/12/27 01:18:20;;;;;;;16.00;2.40;;;3.90;99.90;;;;;;5073252;28;20299;-45
2023/12/27 01:20:48;;;;;;;10.90;1.73;;;3.90;99.90;;;;;;5045711;28;20955;-52
2023/12/27 01:23:15;;;;;;;5.17;1.53;;;4.00;99.90;;;;;;5076307;28;20194;-47
2023/12/27 01:25:42;;;;;;;8.47;1.40;;;4.00;99.90;;;;;;5080420;28;20198;-49
2023/12/27 01:28:09;;;;;;;7.10;1.60;;;4.10;99.90;;;;;;5052999;28;20234;-46
2023/12/27 01:30:36;;;;;;;9.33;1.50;;;4.10;99.90;;;;;;5059509;28;20542;-43
2023/12/27 01:33:04;;;;;;;8.27;1.13;;;4.10;99.90;;;;;;5075865;28;20277;-46
2023/12/27 01:35:31;;;;;;;8.97;1.70;;;4.10;99.90;;;;;;5051903;28;20283;-43
2023/12/27 01:38:00;;;;;;;8.70;1.93;;;4.10;99.90;;;;;;5078346;28;20206;-48
2023/12/27 01:40:27;;;;;;;6.53;1.23;;;4.00;99.90;;;;;;5075492;28;20294;-43
2023/12/27 01:42:54;;;;;;;9.80;1.33;;;4.00;99.90;;;;;;5074687;28;20865;-48
2023/12/27 01:45:21;;;;;;;6.63;1.53;;;4.00;99.90;;;;;;5066860;28;20213;-46
2023/12/27 01:47:48;;;;;;;8.53;1.47;;;4.00;99.90;;;;;;5063002;28;21214;-47
2023/12/27 01:50:16;;;;;;;9.17;2.10;;;4.00;99.90;;;;;;5053513;28;20190;-47
2023/12/27 01:52:43;;;;;;;4.80;1.00;;;3.90;99.90;;;;;;5070205;28;20302;-46
2023/12/27 01:55:12;;;;;;;10.23;1.50;;;3.90;99.90;;;;;;5072829;28;20263;-43
2023/12/27 01:57:40;;;;;;;2.57;1.10;;;3.90;99.90;;;;;;5079171;28;20289;-43
2023/12/27 02:00:08;;;;;;;7.90;1.83;;;3.90;99.90;;;;;;5057688;28;20190;-44
2023/12/27 02:02:40;;;;;;;9.03;1.57;;;3.90;99.90;;;;;;5058838;28;20721;-45
2023/12/27 02:05:07;;;;;;;10.10;1.60;;;3.80;99.90;;;;;;5049170;28;20206;-45
2023/12/27 02:07:36;;;;;;;9.90;1.53;;;3.80;99.90;;;;;;5072747;28;20198;-45
2023/12/27 02:10:04;;;;;;;15.87;1.37;;;3.80;99.90;;;;;;5068820;28;20211;-45
2023/12/27 02:12:32;;;;;;;8.30;1.40;;;3.80;99.90;;;;;;5072287;28;20647;-46
2023/12/27 02:14:59;;;;;;;10.10;1.40;;;3.70;99.90;;;;;;5049881;28;20198;-49
2023/12/27 02:17:27;;;;;;;8.50;1.40;;;3.70;99.90;;;;;;5049136;28;20197;-46
2023/12/27 02:19:56;;;;;;;12.70;1.60;;;3.70;99.90;;;;;;5062031;28;20756;-53
2023/12/27 02:22:24;;;;;;;8.33;2.10;;;3.60;99.90;;;;;;5060656;28;20312;-47
2023/12/27 02:24:54;;;;;;;5.27;1.20;;;3.60;99.90;;;;;;5075761;28;20199;-46
2023/12/27 02:27:21;;;;;;;12.77;1.77;;;3.50;99.90;;;;;;5072599;28;20190;-46
2023/12/27 02:29:48;;;;;;;12.87;1.40;;;3.50;99.90;;;;;;5067338;28;20221;-50
2023/12/27 02:32:15;;;;;;;7.87;1.23;;;3.50;99.90;;;;;;5056707;28;21195;-47
2023/12/27 02:34:42;;;;;;;6.83;1.23;;;3.50;99.90;;;;;;5080775;28;20822;-48
2023/12/27 02:37:08;;;;;;;6.80;1.67;;;3.40;99.90;;;;;;5051679;28;20198;-46
2023/12/27 02:39:35;;;;;;;7.20;1.37;;;3.40;99.90;;;;;;5070614;28;20247;-47
2023/12/27 02:42:04;;;;;;;7.03;1.40;;;3.40;99.90;;;;;;5074482;28;20218;-43
2023/12/27 02:44:31;;;;;;;6.67;1.50;;;3.40;99.90;;;;;;5074220;28;20201;-46
2023/12/27 02:46:58;;;;;;;7.20;1.30;;;3.40;99.90;;;;;;5070316;28;20194;-50
2023/12/27 02:49:25;;;;;;;10.67;1.57;;;3.40;99.90;;;;;;5056535;28;20229;-45
2023/12/27 02:51:52;;;;;;;6.30;2.47;;;3.40;99.90;;;;;;5049219;28;20221;-47
2023/12/27 02:54:19;;;;;;;9.60;1.83;;;3.30;99.90;;;;;;5065134;28;20619;-46
2023/12/27 02:56:46;;;;;;;8.60;1.30;;;3.40;99.90;;;;;;5071608;28;20894;-44
2023/12/27 02:59:14;;;;;;;9.47;1.17;;;3.30;99.90;;;;;;5073180;28;20190;-47
2023/12/27 03:01:41;;;;;;;5.00;1.03;;;3.30;99.90;;;;;;5066921;28;20242;-45
2023/12/27 03:04:08;;;;;;;6.60;1.27;;;3.30;99.90;;;;;;5047948;28;20201;-46
2023/12/27 03:06:35;;;;;;;4.73;1.07;;;3.30;99.90;;;;;;5070952;28;20753;-47
2023/12/27 03:09:02;;;;;;;9.90;1.50;;;3.30;99.90;;;;;;5046985;28;20210;-45
2023/12/27 03:11:31;;;;;;;4.93;1.30;;;3.30;99.90;;;;;;5072320;28;20225;-47
2023/12/27 03:13:58;;;;;;;4.67;1.37;;;3.30;99.90;;;;;;5077972;28;20413;-46
2023/12/27 03:16:28;;;;;;;10.07;1.60;;;3.20;99.90;;;;;;5067329;28;20687;-48
2023/12/27 03:18:55;;;;;;;8.47;1.80;;;3.20;99.90;;;;;;5080200;28;20198;-44
2023/12/27 03:21:22;;;;;;;6.83;1.50;;;3.30;99.90;;;;;;5054152;28;20237;-47
2023/12/27 03:23:49;;;;;;;7.93;2.10;;;3.30;99.90;;;;;;5053222;28;20206;-48
2023/12/27 03:26:16;;;;;;;10.20;1.90;;;3.20;99.90;;;;;;5073808;28;20826;-50
2023/12/27 03:28:43;;;;;;;4.73;1.10;;;3.20;99.90;;;;;;5072252;28;20216;-44
2023/12/27 03:31:10;;;;;;;7.00;1.40;;;3.20;99.90;;;;;;5078456;28;20229;-43
2023/12/27 03:33:38;;;;;;;8.63;1.80;;;3.20;99.90;;;;;;5064686;28;20202;-43
2023/12/27 03:36:06;;;;;;;3.97;1.50;;;3.20;99.90;;;;;;5054611;28;20636;-45
2023/12/27 03:38:33;;;;;;;10.67;1.77;;;3.10;99.90;;;;;;5044350;28;20206;-44
2023/12/27 03:41:00;;;;;;;7.13;1.77;;;3.10;99.90;;;;;;5079463;28;20241;-43
2023/12/27 03:43:27;;;;;;;7.87;1.20;;;3.10;99.90;;;;;;5074027;28;20199;-49
2023/12/27 03:45:54;;;;;;;8.37;1.70;;;3.10;99.90;;;;;;5079935;28;20228;-43
2023/12/27 03:48:21;;;;;;;6.97;1.73;;;3.10;99.90;;;;;;5068963;28;20656;-50
2023/12/27 03:50:50;;;;;;;6.67;1.50;;;3.10;99.90;;;;;;5052207;28;20240;-46
2023/12/27 03:53:17;;;;;;;9.83;2.07;;;3.00;99.90;;;;;;5065593;28;20191;-47
2023/12/27 03:55:44;;;;;;;8.87;1.40;;;3.00;99.90;;;;;;5084388;27;20197;-47
2023/12/27 03:58:10;;;;;;;12.83;1.47;;;3.00;99.90;;;;;;5078407;28;20190;-47
2023/12/27 04:00:37;;;;;;;5.13;1.30;;;3.00;99.90;;;;;;5071599;28;20190;-44
2023/12/27 04:03:04;;;;;;;8.00;1.33;;;3.00;99.90;;;;;;5064255;28;20201;-48
2023/12/27 04:05:31;;;;;;;8.90;1.50;;;3.00;99.90;;;;;;5073433;28;20202;-44
2023/12/27 04:08:00;;;;;;;4.63;1.33;;;3.00;99.90;;;;;;5053979;28;20205;-46
2023/12/27 04:10:31;;;;;;;6.47;1.57;;;3.00;99.90;;;;;;5050594;28;20693;-52
2023/12/27 04:12:58;;;;;;;6.37;1.47;;;2.90;99.90;;;;;;5077727;28;20226;-44
2023/12/27 04:15:25;;;;;;;6.53;1.10;;;2.90;99.90;;;;;;5072058;28;20710;-47
2023/12/27 04:17:52;;;;;;;8.10;1.67;;;2.90;99.90;;;;;;5060018;28;20669;-46
2023/12/27 04:20:19;;;;;;;6.70;1.23;;;2.90;99.90;;;;;;5077468;28;20988;-43
2023/12/27 04:22:46;;;;;;;11.67;1.60;;;2.90;99.90;;;;;;5058255;28;20213;-48
2023/12/27 04:25:14;;;;;;;6.97;1.20;;;2.80;99.90;;;;;;5040067;28;20235;-47
2023/12/27 04:27:42;;;;;;;6.70;1.60;;;2.80;99.90;;;;;;5070957;28;20201;-44
2023/12/27 04:30:10;;;;;;;7.70;1.53;;;2.80;99.90;;;;;;5073435;28;20213;-45
2023/12/27 04:32:37;;;;;;;6.40;1.47;;;2.80;99.90;;;;;;5077341;28;20283;-44
2023/12/27 04:35:04;;;;;;;5.57;1.60;;;2.80;99.90;;;;;;5063157;28;20212;-44
2023/12/27 04:37:31;;;;;;;5.80;1.53;;;2.80;99.90;;;;;;5054287;28;20202;-45
2023/12/27 04:39:58;;;;;;;8.30;1.30;;;2.70;99.90;;;;;;5067981;28;20193;-47
2023/12/27 04:42:27;;;;;;;4.70;1.17;;;2.70;99.90;;;;;;5051159;28;20218;-48
2023/12/27 04:44:54;;;;;;;10.90;1.70;;;2.70;99.90;;;;;;5074277;28;20406;-47
2023/12/27 04:47:20;;;;;;;5.10;1.73;;;2.70;99.90;;;;;;5075177;28;20862;-45
2023/12/27 04:49:47;;;;;;;4.90;1.33;;;2.70;99.90;;;;;;5062592;28;20217;-48
2023/12/27 04:52:15;;;;;;;10.30;1.83;;;2.70;99.90;;;;;;5050406;28;21948;-46
2023/12/27 04:54:42;;;;;;;5.90;1.40;;;2.70;99.90;;;;;;5078497;28;20538;-44
2023/12/27 04:57:09;;;;;;;7.57;1.37;;;2.70;99.90;;;;;;5044455;28;20202;-44
2023/12/27 04:59:37;;;;;;;7.30;1.30;;;2.70;99.90;;;;;;5079335;28;20205;-44
2023/12/27 05:02:04;;;;;;;8.57;1.60;;;2.70;99.90;;;;;;5068277;28;20221;-46
2023/12/27 05:04:31;;;;;;;6.00;1.10;;;2.70;99.90;;;;;;5070456;28;20255;-46
2023/12/27 05:06:58;;;;;;;3.93;1.40;;;2.60;99.90;;;;;;5076853;28;20224;-45
2023/12/27 05:09:25;;;;;;;13.57;2.37;;;2.60;99.90;;;;;;5053751;28;20745;-46
2023/12/27 05:11:52;;;;;;;6.07;1.27;;;2.60;99.90;;;;;;5053568;28;20225;-46
2023/12/27 05:14:19;;;;;;;6.00;1.10;;;2.60;99.90;;;;;;5072892;28;20258;-48
2023/12/27 05:16:48;;;;;;;10.10;1.70;;;2.60;99.90;;;;;;5078856;28;20605;-47
2023/12/27 05:19:15;;;;;;;6.03;1.70;;;2.60;99.90;;;;;;5068660;28;20206;-43
2023/12/27 05:21:42;;;;;;;13.80;1.70;;;2.60;99.90;;;;;;5081052;28;20708;-45
2023/12/27 05:24:09;;;;;;;7.43;1.43;;;2.60;99.90;;;;;;5051078;28;20190;-43
2023/12/27 05:26:35;;;;;;;6.07;1.40;;;2.60;99.90;;;;;;5073320;28;20260;-45
2023/12/27 05:29:02;;;;;;;8.93;1.90;;;2.60;99.90;;;;;;5031683;28;20940;-46
2023/12/27 05:31:29;;;;;;;5.83;1.33;;;2.60;99.90;;;;;;5081086;28;20248;-44
2023/12/27 05:33:58;;;;;;;2.80;1.20;;;2.60;99.90;;;;;;5070909;28;20198;-48
2023/12/27 05:36:25;;;;;;;4.27;1.63;;;2.60;99.90;;;;;;5062390;28;20214;-46
2023/12/27 05:38:51;;;;;;;4.97;1.27;;;2.60;99.90;;;;;;5057180;28;20661;-46
2023/12/27 05:41:24;;;;;;;5.97;1.10;;;2.60;99.90;;;;;;5071180;28;20229;-43
2023/12/27 05:43:51;;;;;;;4.90;1.40;;;2.50;99.90;;;;;;5052492;28;20213;-48
2023/12/27 05:46:18;;;;;;;6.40;1.03;;;2.50;99.90;;;;;;5079939;28;20194;-46
2023/12/27 05:48:45;;;;;;;8.60;1.30;;;2.50;99.90;;;;;;5078217;28;20190;-48
2023/12/27 05:51:13;;;;;;;8.07;1.83;;;2.50;99.90;;;;;;5061594;28;20911;-46
2023/12/27 05:53:41;;;;;;;6.63;1.53;;;2.40;99.90;;;;;;5082631;28;20586;-45
2023/12/27 05:56:08;;;;;;;7.77;1.50;;;2.40;99.90;;;;;;5058102;28;20244;-48
2023/12/27 05:58:36;;;;;;;8.13;1.13;;;2.30;99.90;;;;;;5057902;28;20703;-46
2023/12/27 06:01:03;;;;;;;4.73;1.47;;;2.30;99.90;;;;;;5076695;28;21031;-48
2023/12/27 06:03:30;;;;;;;4.63;1.10;;;2.30;99.90;;;;;;5079253;28;20190;-45
2023/12/27 06:05:57;;;;;;;5.37;1.40;;;2.20;99.90;;;;;;5070861;28;20733;-46
2023/12/27 06:08:25;;;;;;;6.60;1.20;;;2.20;99.90;;;;;;5079048;28;20273;-44
2023/12/27 06:10:52;;;;;;;5.30;1.20;;;2.30;99.90;;;;;;5066738;28;20222;-47
2023/12/27 06:13:19;;;;;;;7.13;1.40;;;2.20;99.90;;;;;;5070323;28;20289;-49
2023/12/27 06:15:46;;;;;;;4.50;1.13;;;2.10;99.90;;;;;;5052363;28;20202;-46
2023/12/27 06:18:13;;;;;;;10.57;1.47;;;2.10;99.90;;;;;;5075378;28;20182;-43
2023/12/27 06:20:40;;;;;;;4.90;1.30;;;2.00;99.90;;;;;;5075560;28;20289;-49
2023/12/27 06:23:07;;;;;;;8.70;1.40;;;2.00;99.90;;;;;;5071882;28;20224;-46
2023/12/27 06:25:35;;;;;;;6.67;1.40;;;2.00;99.90;;;;;;5076198;28;20198;-44
2023/12/27 06:28:03;;;;;;;3.60;1.10;;;2.00;99.90;;;;;;5058372;28;20190;-43
2023/12/27 06:30:30;;;;;;;7.13;1.57;;;2.00;99.90;;;;;;5050198;28;20229;-48
2023/12/27 06:32:57;;;;;;;8.37;1.30;;;1.90;99.90;;;;;;5061478;28;20754;-49
2023/12/27 06:35:23;;;;;;;4.97;1.10;;;1.90;99.90;;;;;;5078536;28;20190;-47
2023/12/27 06:37:50;;;;;;;10.67;1.93;;;1.80;99.90;;;;;;5061802;28;20271;-43
2023/12/27 06:40:17;;;;;;;3.80;1.00;;;1.80;99.90;;;;;;5076432;28;20187;-44
2023/12/27 06:42:45;;;;;;;7.63;1.50;;;1.90;99.90;;;;;;5041226;28;20318;-48
2023/12/27 06:45:12;;;;;;;5.70;1.43;;;1.90;99.90;;;;;;5054308;28;20567;-45
2023/12/27 06:47:39;;;;;;;4.60;1.03;;;1.80;99.90;;;;;;5057945;28;20563;-45
2023/12/27 06:50:08;;;;;;;6.03;1.63;;;1.70;99.90;;;;;;5065850;28;20219;-44
2023/12/27 06:52:35;;;;;;;9.53;1.83;;;1.60;99.90;;;;;;5064434;28;20307;-45
2023/12/27 06:55:02;;;;;;;8.30;1.60;;;1.70;99.90;;;;;;5078676;28;20197;-44
2023/12/27 06:57:29;;;;;;;5.53;1.30;;;1.60;99.90;;;;;;5072774;28;20190;-45
2023/12/27 06:59:57;;;;;;;7.50;1.27;;;1.70;99.90;;;;;;5061984;28;20671;-46
2023/12/27 07:02:24;;;;;;;6.73;1.67;;;1.60;99.90;;;;;;5032328;28;20360;-43
2023/12/27 07:04:51;;;;;;;5.53;1.30;;;1.60;99.90;;;;;;5067993;28;20206;-46
2023/12/27 07:07:18;;;;;;;5.90;1.57;;;1.60;99.90;;;;;;5073898;28;20244;-44
2023/12/27 07:09:44;;;;;;;7.83;1.50;;;1.60;99.90;;;;;;5070686;28;20198;-43
2023/12/27 07:12:12;;;;;;;8.20;1.80;;;1.60;99.90;;;;;;5075279;28;20217;-45
2023/12/27 07:14:39;;;;;;;6.17;1.30;;;1.60;99.90;;;;;;5052987;28;20320;-44
2023/12/27 07:17:07;;;;;;;4.17;1.20;;;1.60;99.90;;;;;;5046776;28;21063;-46
2023/12/27 07:19:34;;;;;;;4.37;1.47;;;1.60;99.90;;;;;;5061959;28;20588;-45
2023/12/27 07:22:01;;;;;;;8.60;1.60;;;1.60;99.90;;;;;;5076162;28;20214;-48
2023/12/27 07:24:29;;;;;;;11.13;1.73;;;1.60;99.90;;;;;;5068234;28;20206;-44
2023/12/27 07:26:56;;;;;;;4.00;1.17;;;1.60;99.90;;;;;;5068908;28;20618;-45
2023/12/27 07:29:23;;;;;;;8.90;2.10;;;1.60;99.90;;;;;;5074945;28;20277;-45
2023/12/27 07:31:50;;;;;;;3.17;1.60;;;1.60;99.90;;;;;;5031127;28;20221;-46
2023/12/27 07:34:18;;;;;;;5.87;1.30;;;1.60;99.90;;;;;;5069239;28;20272;-47
2023/12/27 07:36:45;;;;;;;10.17;1.50;;;1.60;99.90;;;;;;5070985;28;20216;-44
2023/12/27 07:39:13;;;;;;;6.10;1.83;;;1.50;99.90;;;;;;5067824;28;20217;-43
2023/12/27 07:41:40;;;;;;;4.73;1.23;;;1.50;99.90;;;;;;5067371;28;20664;-44
2023/12/27 07:44:07;;;;;;;5.67;1.43;;;1.60;99.90;;;;;;5073744;28;20194;-45
2023/12/27 07:46:34;;;;;;;3.63;1.60;;;1.50;99.90;;;;;;5057243;28;20260;-44
2023/12/27 07:49:02;;;;;;;10.93;1.60;;;1.60;99.90;;;;;;5030008;28;20249;-48
2023/12/27 07:51:30;;;;;;;5.20;2.60;;;1.50;99.90;;;;;;5076119;28;20210;-45
2023/12/27 07:53:57;;;;;;;3.87;1.33;;;1.50;99.90;;;;;;5060725;28;20213;-48
2023/12/27 07:56:24;;;;;;;2.30;1.40;;;1.50;99.90;;;;;;5070662;28;20198;-47
2023/12/27 07:58:51;;;;;;;3.37;1.83;;;1.50;99.90;;;;;;5055500;28;20210;-47
2023/12/27 08:01:18;;;;;;;2.80;1.70;;;1.50;99.90;;;;;;5052102;28;20225;-46
2023/12/27 08:03:44;;;;;;;4.67;1.40;;;1.60;99.90;;;;;;5048821;28;20635;-49
2023/12/27 08:06:12;;;;;;;5.77;1.67;;;1.60;99.90;;;;;;5063100;28;20193;-46
2023/12/27 08:08:40;;;;;;;4.60;1.27;;;1.60;99.90;;;;;;5059337;28;20202;-46
2023/12/27 08:11:07;;;;;;;3.53;1.50;;;1.60;99.90;;;;;;5074628;28;20241;-44
2023/12/27 08:13:35;;;;;;;7.37;1.83;;;1.60;99.90;;;;;;5060035;28;20306;-44
2023/12/27 08:16:02;;;;;;;7.20;1.50;;;1.60;99.90;;;;;;5043354;28;20305;-45
2023/12/27 08:18:28;;;;;;;7.73;1.70;;;1.60;99.90;;;;;;5058044;28;20550;-44
2023/12/27 08:20:56;;;;;;;6.27;1.50;;;1.60;99.90;;;;;;5057184;28;20220;-46
2023/12/27 08:23:22;;;;;;;5.37;1.97;;;1.60;99.90;;;;;;5075189;28;20202;-45
2023/12/27 08:25:51;;;;;;;8.90;2.13;;;1.60;99.90;;;;;;5057668;28;20305;-47
2023/12/27 08:28:18;;;;;;;5.77;1.70;;;1.60;99.90;;;;;;5062846;28;20223;-47
2023/12/27 08:30:46;;;;;;;5.27;1.60;;;1.50;99.90;;;;;;5071649;28;20222;-46
2023/12/27 08:33:13;;;;;;;4.23;1.60;;;1.50;99.90;;;;;;5039317;28;20669;-46
2023/12/27 08:35:40;;;;;;;10.40;1.80;;;1.50;99.90;;;;;;5063470;28;20203;-44
2023/12/27 08:38:08;;;;;;;10.30;2.20;;;1.50;99.90;;;;;;5068596;28;20197;-45
2023/12/27 08:40:35;;;;;;;6.53;2.00;;;1.60;99.90;;;;;;5067112;28;20462;-47
2023/12/27 08:43:04;;;;;;;4.53;1.40;;;1.60;99.90;;;;;;5081398;28;20201;-45
2023/12/27 08:45:31;;;;;;;2.90;1.77;;;1.60;99.90;;;;;;5074233;28;20246;-45
2023/12/27 08:47:58;;;;;;;8.57;2.37;;;1.70;99.90;;;;;;5059971;28;20213;-49
2023/12/27 08:50:24;;;;;;;4.90;2.30;;;1.80;99.90;;;;;;5041507;28;20285;-48
2023/12/27 08:52:51;;;;;;;4.00;1.93;;;1.70;99.90;;;;;;5078849;28;20226;-45
2023/12/27 08:55:19;;;;;;;5.40;2.30;;;1.70;99.90;;;;;;5071350;28;20202;-47
2023/12/27 08:57:46;;;;;;;8.93;2.83;;;1.80;99.90;;;;;;5082766;28;20269;-45
2023/12/27 09:00:18;;;;;;;4.57;2.47;;;1.80;99.90;;;;;;5065953;28;20196;-49
2023/12/27 09:02:46;;;;;;;7.63;4.50;;;1.80;99.90;;;;;;5054189;28;20217;-45
2023/12/27 09:05:13;;;;;;;5.17;2.00;;;1.90;99.90;;;;;;5046479;28;20203;-46
2023/12/27 09:07:40;;;;;;;5.33;1.97;;;1.90;99.90;;;;;;5071166;28;20239;-46
2023/12/27 09:10:07;;;;;;;6.97;2.30;;;2.00;99.90;;;;;;5080862;28;20201;-45
2023/12/27 09:12:34;;;;;;;4.80;2.07;;;2.10;99.90;;;;;;5064651;28;20214;-45
2023/12/27 09:15:01;;;;;;;8.73;2.33;;;2.20;99.90;;;;;;5075683;28;20198;-45
2023/12/27 09:17:29;;;;;;;4.93;2.40;;;2.10;99.90;;;;;;5058820;28;22990;-47
2023/12/27 09:19:56;;;;;;;7.23;2.30;;;2.20;99.90;;;;;;5064257;28;20570;-46
2023/12/27 09:22:23;;;;;;;8.57;3.43;;;2.20;99.90;;;;;;5054757;28;20237;-44
2023/12/27 09:24:50;;;;;;;6.90;2.87;;;2.20;99.90;;;;;;5085418;28;20187;-45
2023/12/27 09:27:17;;;;;;;8.40;3.00;;;2.30;99.90;;;;;;5065249;28;20315;-48
2023/12/27 09:29:44;;;;;;;6.33;2.70;;;2.30;99.90;;;;;;5079870;28;20194;-46
2023/12/27 09:32:11;;;;;;;6.10;3.03;;;2.30;99.90;;;;;;5075590;28;20217;-45
2023/12/27 09:34:40;;;;;;;8.90;3.57;;;2.40;99.90;;;;;;5062909;28;20213;-46
2023/12/27 09:37:08;;;;;;;6.67;3.03;;;2.40;99.90;;;;;;5052692;28;20715;-47
2023/12/27 09:39:35;;;;;;;8.20;3.53;;;2.40;99.90;;;;;;5071555;28;20198;-45
2023/12/27 09:42:02;;;;;;;10.77;3.37;;;2.50;99.90;;;;;;5083107;28;20210;-45
2023/12/27 09:44:32;;;;;;;12.57;3.90;;;2.50;99.90;;;;;;5073946;28;20204;-45
2023/12/27 09:47:00;;;;;;;10.27;3.40;;;2.60;99.90;;;;;;5066780;28;20658;-46
2023/12/27 09:49:28;;;;;;;9.50;3.83;;;2.60;99.90;;;;;;5077102;28;20178;-44
2023/12/27 09:51:58;;;;;;;6.23;4.50;;;2.60;99.90;;;;;;5039497;28;20240;-47
2023/12/27 09:54:25;;;;;;;9.67;4.10;;;2.70;99.90;;;;;;5068801;28;20197;-44
2023/12/27 09:56:53;;;;;;;13.10;3.97;;;2.70;99.90;;;;;;5081542;28;20277;-47
2023/12/27 09:59:26;;;;;;;7.73;3.80;;;2.80;99.90;;;;;;5069307;28;21109;-44
2023/12/27 10:01:59;;;;;;;9.23;3.77;;;2.80;99.90;;;;;;5073115;28;20264;-48
2023/12/27 10:04:35;;;;;;;3.57;2.73;;;2.90;99.90;;;;;;5073174;28;20212;-44
2023/12/27 10:07:05;;;;;;;5.07;3.10;;;2.90;99.90;;;;;;5028480;28;20283;-46
2023/12/27 10:09:34;;;;;;;8.73;3.50;;;2.90;99.90;;;;;;5063977;28;20282;-45
2023/12/27 10:12:01;;;;;;;7.60;3.33;;;2.90;99.90;;;;;;5071897;28;20309;-45
2023/12/27 10:14:31;;;;;;;8.00;2.90;;;3.00;99.90;;;;;;5080333;28;20935;-47
2023/12/27 10:16:58;;;;;;;10.70;4.33;;;3.00;99.90;;;;;;5074921;28;20214;-49
2023/12/27 10:19:39;;;;;;;7.13;3.60;;;3.10;99.90;;;;;;5077198;28;20293;-46
2023/12/27 10:22:08;;;;;;;8.30;3.17;;;3.10;99.90;;;;;;5041789;28;20392;-47
2023/12/27 10:24:35;;;;;;;6.93;3.30;;;3.20;99.90;;;;;;5056238;28;20202;-45
2023/12/27 10:27:02;;;;;;;8.53;3.57;;;3.30;99.90;;;;;;5072406;28;20194;-46
2023/12/27 10:29:30;;;;;;;11.37;4.23;;;3.30;99.90;;;;;;5075227;28;20371;-45
2023/12/27 10:31:59;;;;;;;7.13;3.60;;;3.40;99.90;;;;;;5068398;28;20228;-46
2023/12/27 10:34:26;;;;;;;9.90;3.97;;;3.40;99.90;;;;;;5073042;28;20206;-48
2023/12/27 10:36:54;;;;;;;13.53;3.60;;;3.50;99.90;;;;;;5059584;28;20548;-46
2023/12/27 10:39:23;;;;;;;13.87;3.77;;;3.50;99.90;;;;;;5058966;28;20194;-46
2023/12/27 10:41:52;;;;;;;6.37;3.30;;;3.50;99.90;;;;;;5078852;28;20207;-47
2023/12/27 10:44:19;;;;;;;9.57;3.83;;;3.60;99.90;;;;;;5076174;28;20238;-45
2023/12/27 10:46:48;;;;;;;9.83;3.53;;;3.60;99.90;;;;;;5069305;28;20198;-45
2023/12/27 10:49:18;;;;;;;9.93;3.70;;;3.70;99.90;;;;;;5067334;28;20186;-46
2023/12/27 10:51:48;;;;;;;10.67;3.50;;;3.70;99.90;;;;;;5053508;28;20217;-45
2023/12/27 10:54:21;;;;;;;6.30;3.50;;;3.70;99.90;;;;;;5052388;28;20207;-45
2023/12/27 10:56:51;;;;;;;5.93;3.63;;;3.70;99.90;;;;;;5064428;28;20234;-44
2023/12/27 10:59:19;;;;;;;6.73;3.60;;;3.80;99.90;;;;;;5081365;28;20860;-46
2023/12/27 11:01:47;;;;;;;5.07;2.80;;;3.80;99.90;;;;;;5066159;28;20758;-47
2023/12/27 11:04:16;;;;;;;11.00;3.50;;;3.80;99.90;;;;;;5078269;28;20256;-44
2023/12/27 11:06:46;;;;;;;10.40;3.80;;;3.80;99.90;;;;;;5050174;28;20794;-46
2023/12/27 11:09:13;;;;;;;10.10;3.10;;;3.90;99.90;;;;;;5056074;28;20601;-45
2023/12/27 11:11:41;;;;;;;8.83;3.43;;;3.90;99.90;;;;;;5070317;28;20209;-46
2023/12/27 11:14:11;;;;;;;8.83;3.40;;;3.90;99.90;;;;;;5081455;28;20186;-44
2023/12/27 11:16:40;;;;;;;7.03;3.27;;;4.00;99.90;;;;;;5077307;28;20202;-46
2023/12/27 11:19:08;;;;;;;6.50;2.93;;;3.90;99.90;;;;;;5070886;28;20327;-46
2023/12/27 11:21:36;;;;;;;7.33;2.97;;;4.00;99.90;;;;;;5061109;28;20238;-47
2023/12/27 11:24:03;;;;;;;10.73;3.50;;;4.00;99.90;;;;;;5030573;28;20221;-45
2023/12/27 11:26:34;;;;;;;7.93;3.00;;;4.00;99.90;;;;;;5077750;28;20252;-46
2023/12/27 11:29:02;;;;;;;9.00;3.23;;;4.10;99.90;;;;;;5076350;28;20624;-47
2023/12/27 11:31:30;;;;;;;15.03;3.60;;;4.10;99.90;;;;;;5080797;28;20214;-44
2023/12/27 11:33:58;;;;;;;15.67;3.40;;;4.10;99.90;;;;;;5069773;28;20209;-47
2023/12/27 11:36:26;;;;;;;10.67;3.10;;;4.20;99.90;;;;;;5064607;28;20198;-46
2023/12/27 11:38:54;;;;;;;9.93;3.70;;;4.10;99.90;;;;;;5035151;28;20210;-44
2023/12/27 11:41:21;;;;;;;8.03;3.07;;;4.20;99.90;;;;;;5066975;28;20249;-46
2023/12/27 11:43:53;;;;;;;11.53;3.83;;;4.20;99.90;;;;;;5070022;28;20213;-47
2023/12/27 11:46:26;;;;;;;12.73;3.40;;;4.20;99.90;;;;;;5070446;28;20272;-46
2023/12/27 11:48:55;;;;;;;12.53;4.03;;;4.20;99.90;;;;;;5065426;28;20692;-46
2023/12/27 11:51:27;;;;;;;6.20;3.00;;;4.20;99.90;;;;;;5076547;28;20827;-47
2023/12/27 11:53:54;;;;;;;9.47;3.23;;;4.20;99.90;;;;;;5044327;28;20287;-45
2023/12/27 11:56:21;;;;;;;10.50;3.73;;;4.20;99.90;;;;;;5063453;28;20210;-47
2023/12/27 11:58:49;;;;;;;10.07;3.23;;;4.20;99.90;;;;;;5086746;28;20310;-45
2023/12/27 12:01:26;;;;;;;5.63;3.07;;;4.20;99.90;;;;;;5071584;28;20388;-44
2023/12/27 12:04:09;;;;;;;6.93;2.83;;;4.20;99.90;;;;;;5071095;28;20680;-45
2023/12/27 12:06:53;;;;;;;6.10;2.57;;;4.20;99.90;;;;;;5080236;28;20244;-46
2023/12/27 12:09:21;;;;;;;11.17;3.40;;;4.30;99.90;;;;;;5048646;28;20293;-44
2023/12/27 12:11:49;;;;;;;5.10;3.07;;;4.30;99.90;;;;;;5040346;28;20248;-46
2023/12/27 12:14:16;;;;;;;9.67;3.13;;;4.30;99.90;;;;;;5076601;28;20194;-45
2023/12/27 12:16:44;;;;;;;15.77;2.80;;;4.40;99.90;;;;;;5081044;28;20229;-45
2023/12/27 12:19:16;;;;;;;10.27;3.13;;;4.40;99.90;;;;;;5066845;28;20213;-45
2023/12/27 12:21:43;;;;;;;3.93;2.60;;;4.40;99.90;;;;;;5090174;28;20210;-45
2023/12/27 12:24:10;;;;;;;5.50;2.70;;;4.40;99.90;;;;;;5037005;28;20312;-45
2023/12/27 12:26:37;;;;;;;9.53;3.03;;;4.40;99.90;;;;;;5055939;28;20668;-45
2023/12/27 12:29:07;;;;;;;6.03;2.77;;;4.50;99.90;;;;;;5068842;28;20209;-46
2023/12/27 12:31:35;;;;;;;6.10;2.53;;;4.50;99.90;;;;;;5078428;28;20218;-45
2023/12/27 12:34:01;;;;;;;8.53;2.97;;;4.50;99.90;;;;;;5077567;28;20197;-45
2023/12/27 12:36:30;;;;;;;5.90;2.50;;;4.50;99.90;;;;;;5065289;28;20218;-44
2023/12/27 12:38:58;;;;;;;6.83;2.57;;;4.50;99.90;;;;;;5070556;28;20668;-44
2023/12/27 12:41:25;;;;;;;9.60;2.40;;;4.50;99.90;;;;;;5059309;28;21004;-45
2023/12/27 12:43:52;;;;;;;10.00;2.67;;;4.50;99.90;;;;;;5067397;28;20292;-45
2023/12/27 12:46:19;;;;;;;4.87;2.27;;;4.50;99.90;;;;;;5069830;28;20396;-47
2023/12/27 12:48:46;;;;;;;8.93;2.20;;;4.60;99.90;;;;;;5073274;28;20195;-48
2023/12/27 12:51:15;;;;;;;7.47;2.30;;;4.60;99.90;;;;;;5066451;28;20222;-44
2023/12/27 12:53:44;;;;;;;6.50;2.60;;;4.50;99.90;;;;;;5083544;28;20296;-45
2023/12/27 12:56:11;;;;;;;4.70;2.70;;;4.50;99.90;;;;;;5054293;28;23698;-44
2023/12/27 12:58:40;;;;;;;11.10;2.27;;;4.50;99.90;;;;;;5054378;28;20198;-45